• Join FlightAware (Why Join?)
  • Login
  • US Flag 
12:54AM EST


 

Airport Tracker/Info


-or-


 

Live Flight TrackerFlight Track Log ✈ VH-AYT ✈ 08-Oct-2013 ✈ YDAY / DBY - YBAF

Flight Track Log - Related Links

Times and Time Zones

All times are in EDT time to prevent confusion due to time zone crossing. See the VH-AYT flight status page for this flight to view local times or setup timezone preferences in your user account.

Time Position Orientation Groundspeed Altitude Reporting Facility
EDT Latitude Longitude Course Direction KTS MPH feet Rate Location/Type
04:19PM -27.1444 151.2461 199° South 113 130 1,700  Level Aus ATC (RADAR)
04:20PM -27.1672 151.2371 199° South 153 176 2,300 720 Climbing Aus ATC (RADAR)
04:20PM -27.1712 151.2529 106° East 134 154 2,600 780 Climbing Aus ATC (RADAR)
04:22PM -27.1788 151.3143 98° East 121 139 4,000 780 Climbing Aus ATC (RADAR)
04:22PM -27.1802 151.3238 99° East 122 140 4,200 720 Climbing Aus ATC (RADAR)
04:22PM -27.1843 151.3459 102° East 124 143 4,600 720 Climbing Aus ATC (RADAR)
04:23PM -27.1914 151.3738 106° East 139 160 5,100 780 Climbing Aus ATC (RADAR)
04:24PM -27.1969 151.3970 105° East 132 152 5,600 840 Climbing Aus ATC (RADAR)
04:24PM -27.2030 151.4210 106° East 136 157 6,100 720 Climbing Aus ATC (RADAR)
04:25PM -27.2090 151.4448 106° East 136 157 6,500 420 Climbing Aus ATC (RADAR)
04:26PM -27.2286 151.5159 107° East 177 204 7,000 240 Climbing Aus ATC (RADAR)
04:27PM -27.2342 151.5398 105° East 185 213 7,000  Level Aus ATC (RADAR)
04:27PM -27.2395 151.5638 104° East 188 216 7,000  Level Aus ATC (RADAR)
04:28PM -27.2478 151.5967 106° East 185 213 7,000  Level Aus ATC (RADAR)
04:29PM -27.2604 151.6447 106° East 191 220 7,000  Level Aus ATC (RADAR)
04:29PM -27.2687 151.6790 105° East 195 224 7,000  Level Aus ATC (RADAR)
04:30PM -27.2800 151.7229 106° East 191 220 7,000  Level Aus ATC (RADAR)
04:30PM -27.2859 151.7468 106° East 189 217 7,000  Level Aus ATC (RADAR)
04:31PM -27.3016 151.8103 106° East 192 221 7,000  Level Aus ATC (RADAR)
04:32PM -27.3070 151.8353 104° East 194 223 7,000  Level Aus ATC (RADAR)
04:32PM -27.3135 151.8701 102° East 193 222 7,000  Level Aus ATC (RADAR)
04:33PM -27.3220 151.9097 104° East 193 222 7,000  Level Aus ATC (RADAR)
04:34PM -27.3319 151.9430 109° East 191 220 7,000  Level Aus ATC (RADAR)
04:34PM -27.3415 151.9766 108° East 191 220 7,000  Level Aus ATC (RADAR)
04:35PM -27.3506 152.0103 107° East 191 220 7,000  Level Aus ATC (RADAR)
04:35PM -27.3594 152.0440 106° East 191 220 7,000  Level Aus ATC (RADAR)
04:37PM -27.3789 152.1215 106° East 190 219 7,000  Level Aus ATC (RADAR)
04:37PM -27.3851 152.1461 106° East 193 222 7,000  Level Aus ATC (RADAR)
04:38PM -27.3924 152.1755 106° East 192 221 7,000 -180 Level Aus ATC (RADAR)
04:38PM -27.4040 152.2205 106° East 198 228 6,800 -300 Descending Aus ATC (RADAR)
04:39PM -27.4126 152.2577 105° East 203 234 6,600 -480 Descending Aus ATC (RADAR)
04:40PM -27.4217 152.2941 106° East 204 235 6,300 -480 Descending Aus ATC (RADAR)
04:40PM -27.4299 152.3306 104° East 203 234 6,100 -480 Descending Aus ATC (RADAR)
04:41PM -27.4474 152.4025 105° East 201 231 5,500 -480 Descending Aus ATC (RADAR)
04:42PM -27.4521 152.4228 105° East 198 228 5,400 -420 Descending Aus ATC (RADAR)
04:42PM -27.4573 152.4484 103° East 197 227 5,200 -540 Descending Aus ATC (RADAR)
04:43PM -27.4637 152.4839 102° East 193 222 4,900 -540 Descending Aus ATC (RADAR)
04:43PM -27.4729 152.5279 103° East 192 221 4,500 -600 Descending Aus ATC (RADAR)
04:44PM -27.4801 152.5572 105° East 192 221 4,200 -600 Descending Aus ATC (RADAR)
04:44PM -27.4898 152.5907 108° East 188 216 3,900 -600 Descending Aus ATC (RADAR)
04:45PM -27.4965 152.6298 101° East 187 215 3,500 -420 Descending Aus ATC (RADAR)
04:46PM -27.5103 152.7002 102° East 180 207 3,100 -420 Descending Aus ATC (RADAR)
04:47PM -27.5140 152.7190 102° East 181 208 2,900 -720 Descending Aus ATC (RADAR)
04:47PM -27.5177 152.7425 100° East 179 206 2,600 -540 Descending Aus ATC (RADAR)
04:48PM -27.5233 152.7742 101° East 174 200 2,400 -480 Descending Aus ATC (RADAR)
04:48PM -27.5314 152.8136 103° East 169 194 2,000 -540 Descending Aus ATC (RADAR)
04:49PM -27.5375 152.8438 103° East 167 192 1,700 -540 Descending Aus ATC (RADAR)
04:50PM -27.5429 152.8749 101° East 169 194 1,400 -180 Descending Aus ATC (RADAR)
04:50PM -27.5494 152.9081 102° East 160 184 1,500 -180 Climbing Aus ATC (RADAR)
04:52PM -27.5719 152.9646 114° Southeast 160 184 1,100 -360 Descending Aus ATC (RADAR)
04:52PM -27.5805 152.9785 125° Southeast 161 185 1,000  Descending Aus ATC (RADAR)
04:52PM -27.5911 152.9953 126° Southeast 156 180 1,100  Climbing Aus ATC (RADAR)
04:53PM -27.5965 153.0187 105° East 132 152 1,000 -480 Descending Aus ATC (RADAR)
04:54PM -27.5803 153.0325 37° Northeast 129 148 500 -720 Descending Aus ATC (RADAR)
04:54PM -27.5748 153.0119 287° West 115 132 100 -720 Descending Aus ATC (RADAR)